Stanberry, Missouri
Current Conditions -  °F | °C
As of 11:53 AM on Monday 24 Nov 2014 (Local Time) from KSTJ Reporting Station
Overcast Overcast  
Wind Chill: 25°   Ceiling: 3200
Heat Index: 35°   Visibility: 10mi
Dew Point: 24°   Wind: 17mph
Humidity: 64%   Direction: 300°WNW
Pressure: 29.77"   Gusts: 24mph
Location:  40.22°N, 94.54°W
Report Text: KSTJ 241753Z 30015G21KT 10SM OVC032 02/M04 A2977 RMK AO2 SLP084 T00171044 10017 20000 51024
Loading
Personal Weather Stations






























Interactive Weather Map New forecast layout! Learn more

10-Day Weather Forecast

Advertisements
Track Severe Weather on mobile